< < Back
Terminal Aerodrome Forecast


Current Version              Previous Versions:   1  2  3  4  5  6  7  8  9  

Terminal Aerodrome Forecast

836
FTUS42 KILM 281100
TAFILM
TAF
KILM 281124Z 2812/2912 23010KT P6SM SCT200
     FM281330 25011G18KT P6SM FEW040 SCT200
     FM281800 24014G20KT P6SM VCTS SCT040CB BKN200
      TEMPO 2820/2824 VRB20G40KT 1SM +TSRA BKN025CB
     FM290200 26010KT P6SM BKN050 BKN250
     FM290800 32006KT P6SM SCT050=

Latest METAR

253
SAUS70 KWBC 281600 RRE
MTRILM
METAR KILM 281553Z 27011KT 10SM CLR 32/22 A2982 RMK AO2 SLP098
T03220222


USA.gov is the U.S. government's official web portal to all federal, state and local government web resources and services.